createdAt,value
2022-12-25T00:02:01.673Z,100.00
2022-12-25T00:04:29.401Z,100.00
2022-12-25T00:06:59.480Z,100.00
2022-12-25T00:09:27.595Z,100.00
2022-12-25T00:11:55.585Z,100.00
2022-12-25T00:14:23.475Z,100.00
2022-12-25T00:16:51.381Z,100.00
2022-12-25T00:19:19.226Z,100.00
2022-12-25T00:21:47.063Z,100.00
2022-12-25T00:24:16.180Z,100.00
2022-12-25T00:26:43.980Z,100.00
2022-12-25T00:29:14.496Z,100.00
2022-12-25T00:31:42.249Z,100.00
2022-12-25T00:34:10.139Z,100.00
2022-12-25T00:36:41.870Z,100.00
2022-12-25T00:39:10.729Z,100.00
2022-12-25T00:41:57.208Z,100.00
2022-12-25T00:44:25.067Z,100.00
2022-12-25T00:46:53.053Z,100.00
2022-12-25T00:49:23.592Z,100.00
2022-12-25T00:51:51.759Z,100.00
2022-12-25T00:54:20.184Z,100.00
2022-12-25T00:56:49.283Z,100.00
2022-12-25T00:59:17.150Z,100.00
2022-12-25T01:01:45.174Z,100.00
2022-12-25T01:04:13.556Z,100.00
2022-12-25T01:06:41.633Z,100.00
2022-12-25T01:09:27.383Z,100.00
2022-12-25T01:11:56.482Z,100.00
2022-12-25T01:14:24.210Z,100.00
2022-12-25T01:16:52.451Z,100.00
2022-12-25T01:19:20.674Z,100.00
2022-12-25T01:21:48.442Z,100.00
2022-12-25T01:24:16.191Z,100.00
2022-12-25T01:26:44.052Z,100.00
2022-12-25T01:29:13.300Z,100.00
2022-12-25T01:31:41.290Z,100.00
2022-12-25T01:34:09.194Z,100.00
2022-12-25T01:36:37.404Z,100.00
2022-12-25T01:39:06.424Z,100.00
2022-12-25T01:41:34.260Z,100.00
2022-12-25T01:44:06.473Z,100.00
2022-12-25T01:46:37.601Z,100.00
2022-12-25T01:49:10.586Z,100.00
2022-12-25T01:51:43.076Z,100.00
2022-12-25T01:54:15.229Z,100.00
2022-12-25T01:56:45.168Z,100.00
2022-12-25T01:59:17.094Z,100.00
2022-12-25T02:01:47.417Z,100.00
2022-12-25T02:04:24.652Z,100.00
2022-12-25T02:06:52.737Z,100.00
2022-12-25T02:09:20.642Z,100.00
2022-12-25T02:12:00.502Z,100.00
2022-12-25T02:14:30.380Z,100.00
2022-12-25T02:17:08.290Z,100.00
2022-12-25T02:20:04.317Z,100.00
2022-12-25T02:22:45.682Z,100.00
2022-12-25T02:25:28.774Z,100.00
2022-12-25T02:28:20.921Z,100.00
2022-12-25T02:30:55.916Z,100.00
2022-12-25T02:33:47.278Z,100.00
2022-12-25T02:36:21.874Z,100.00
2022-12-25T02:39:12.536Z,100.00
2022-12-25T02:41:44.726Z,100.00
2022-12-25T02:44:36.794Z,100.00
2022-12-25T02:47:39.878Z,100.00
2022-12-25T02:50:27.268Z,100.00
2022-12-25T02:53:16.459Z,100.00
2022-12-25T02:56:05.606Z,100.00
2022-12-25T02:58:56.050Z,100.00
2022-12-25T03:01:52.370Z,100.00
2022-12-25T03:04:42.782Z,100.00
2022-12-25T03:07:15.653Z,100.00
2022-12-25T03:10:05.891Z,100.00
2022-12-25T03:12:41.748Z,100.00
2022-12-25T03:15:29.617Z,100.00
2022-12-25T03:18:02.723Z,100.00
2022-12-25T03:20:48.889Z,100.00
2022-12-25T03:23:38.176Z,100.00
2022-12-25T03:26:24.270Z,100.00
2022-12-25T03:28:52.076Z,100.00
2022-12-25T03:31:30.010Z,100.00
2022-12-25T03:34:27.564Z,100.00
2022-12-25T03:37:20.759Z,100.00
2022-12-25T03:40:22.218Z,100.00
2022-12-25T03:43:12.697Z,100.00
2022-12-25T03:46:01.924Z,100.00
2022-12-25T03:48:50.243Z,100.00
2022-12-25T03:51:41.970Z,100.00
2022-12-25T03:54:30.210Z,100.00
2022-12-25T03:57:16.927Z,100.00
2022-12-25T04:00:02.162Z,100.00
2022-12-25T04:02:55.394Z,100.00
2022-12-25T04:05:41.018Z,100.00
2022-12-25T04:08:27.552Z,100.00
2022-12-25T04:11:12.890Z,100.00
2022-12-25T04:13:58.186Z,100.00
2022-12-25T04:16:43.518Z,100.00
2022-12-25T04:19:28.676Z,100.00
2022-12-25T04:22:13.917Z,100.00
2022-12-25T04:25:00.619Z,100.00
2022-12-25T04:27:46.096Z,100.00
2022-12-25T04:30:31.463Z,100.00
2022-12-25T04:33:16.890Z,100.00
2022-12-25T04:36:04.599Z,100.00
2022-12-25T04:38:32.691Z,100.00
2022-12-25T04:41:02.519Z,100.00
2022-12-25T04:43:30.959Z,100.00
2022-12-25T04:46:00.944Z,100.00
2022-12-25T04:48:31.179Z,100.00
2022-12-25T04:50:59.063Z,100.00
2022-12-25T04:53:26.959Z,100.00
2022-12-25T04:56:03.351Z,100.00
2022-12-25T04:58:32.846Z,100.00
2022-12-25T05:01:01.346Z,100.00
2022-12-25T05:03:29.657Z,100.00
2022-12-25T05:05:57.715Z,100.00
2022-12-25T05:08:25.883Z,100.00
2022-12-25T05:10:53.632Z,100.00
2022-12-25T05:13:22.775Z,100.00
2022-12-25T05:15:50.921Z,100.00
2022-12-25T05:18:18.789Z,100.00
2022-12-25T05:20:53.356Z,100.00
2022-12-25T05:23:21.301Z,100.00
2022-12-25T05:25:49.133Z,100.00
2022-12-25T05:28:16.993Z,100.00
2022-12-25T05:30:46.234Z,100.00
2022-12-25T05:33:14.360Z,100.00
2022-12-25T05:35:42.327Z,100.00
2022-12-25T05:38:10.129Z,100.00
2022-12-25T05:40:41.018Z,100.00
2022-12-25T05:43:09.219Z,100.00
2022-12-25T05:45:37.447Z,100.00
2022-12-25T05:48:07.054Z,100.00
2022-12-25T05:50:37.515Z,100.00
2022-12-25T05:53:08.382Z,100.00
2022-12-25T05:55:36.641Z,100.00
2022-12-25T05:58:05.502Z,100.00
2022-12-25T06:00:33.597Z,100.00
2022-12-25T06:03:01.892Z,100.00
2022-12-25T06:05:31.523Z,100.00
2022-12-25T06:07:59.340Z,100.00
2022-12-25T06:10:27.087Z,100.00
2022-12-25T06:12:55.657Z,100.00
2022-12-25T06:15:23.386Z,100.00
2022-12-25T06:17:51.149Z,100.00
2022-12-25T06:20:19.055Z,100.00
2022-12-25T06:22:48.242Z,100.00
2022-12-25T06:25:16.783Z,100.00
2022-12-25T06:27:45.162Z,100.00
2022-12-25T06:30:13.284Z,100.00
2022-12-25T06:32:41.070Z,100.00
2022-12-25T06:35:09.616Z,100.00
2022-12-25T06:37:37.491Z,100.00
2022-12-25T06:40:08.788Z,100.00
2022-12-25T06:42:36.657Z,100.00
2022-12-25T06:45:04.806Z,100.00
2022-12-25T06:47:32.743Z,100.00
2022-12-25T06:50:00.840Z,100.00
2022-12-25T06:52:28.653Z,100.00
2022-12-25T06:54:56.383Z,100.00
2022-12-25T06:57:25.628Z,100.00
2022-12-25T06:59:55.510Z,100.00
2022-12-25T07:02:25.445Z,100.00
2022-12-25T07:04:54.038Z,100.00
2022-12-25T07:07:23.678Z,100.00
2022-12-25T07:09:51.921Z,100.00
2022-12-25T07:12:23.341Z,100.00
2022-12-25T07:14:55.304Z,100.00
2022-12-25T07:17:23.791Z,100.00
2022-12-25T07:19:51.914Z,100.00
2022-12-25T07:22:19.733Z,100.00
2022-12-25T07:24:47.504Z,100.00
2022-12-25T07:27:15.269Z,100.00
2022-12-25T07:29:43.047Z,100.00
2022-12-25T07:32:12.233Z,100.00
2022-12-25T07:34:40.042Z,100.00
2022-12-25T07:37:07.946Z,100.00
2022-12-25T07:39:36.199Z,100.00
2022-12-25T07:42:04.385Z,100.00
2022-12-25T07:44:32.484Z,100.00
2022-12-25T07:47:00.297Z,100.00
2022-12-25T07:49:29.496Z,100.00
2022-12-25T07:51:57.690Z,100.00
2022-12-25T07:54:25.453Z,100.00
2022-12-25T07:56:53.555Z,100.00
2022-12-25T07:59:21.896Z,100.00
2022-12-25T08:01:50.849Z,100.00
2022-12-25T08:04:19.387Z,100.00
2022-12-25T08:06:48.561Z,100.00
2022-12-25T08:09:16.452Z,100.00
2022-12-25T08:11:47.624Z,100.00
2022-12-25T08:14:16.293Z,100.00
2022-12-25T08:16:44.519Z,100.00
2022-12-25T08:19:12.503Z,100.00
2022-12-25T08:21:40.277Z,100.00
2022-12-25T08:24:10.719Z,100.00
2022-12-25T08:26:38.600Z,100.00
2022-12-25T08:29:06.350Z,100.00
2022-12-25T08:31:37.227Z,100.00
2022-12-25T08:34:07.324Z,100.00
2022-12-25T08:36:35.362Z,100.00
2022-12-25T08:39:03.622Z,100.00
2022-12-25T08:41:36.194Z,100.00
2022-12-25T08:44:04.470Z,100.00
2022-12-25T08:46:32.396Z,100.00
2022-12-25T08:49:00.345Z,100.00
2022-12-25T08:51:28.145Z,100.00
2022-12-25T08:54:00.313Z,100.00
2022-12-25T08:56:29.243Z,100.00
2022-12-25T08:58:58.397Z,100.00
2022-12-25T09:01:26.228Z,100.00
2022-12-25T09:03:54.191Z,100.00
2022-12-25T09:06:21.971Z,100.00
2022-12-25T09:08:50.117Z,100.00
2022-12-25T09:11:20.075Z,100.00
2022-12-25T09:13:48.402Z,100.00
2022-12-25T09:16:20.563Z,100.00
2022-12-25T09:18:49.049Z,100.00
2022-12-25T09:21:17.901Z,100.00
2022-12-25T09:23:46.024Z,100.00
2022-12-25T09:26:15.803Z,100.00
2022-12-25T09:28:50.217Z,100.00
2022-12-25T09:31:21.632Z,100.00
2022-12-25T09:33:49.608Z,100.00
2022-12-25T09:36:17.449Z,100.00
2022-12-25T09:38:45.310Z,100.00
2022-12-25T09:41:18.114Z,100.00
2022-12-25T09:43:50.764Z,100.00
2022-12-25T09:46:24.439Z,100.00
2022-12-25T09:49:03.423Z,100.00
2022-12-25T09:51:35.487Z,100.00
2022-12-25T09:54:11.881Z,100.00
2022-12-25T09:56:39.613Z,100.00
2022-12-25T09:59:17.223Z,100.00
2022-12-25T10:01:59.471Z,100.00
2022-12-25T10:04:43.486Z,100.00
2022-12-25T10:07:19.366Z,100.00
2022-12-25T10:10:04.406Z,100.00
2022-12-25T10:12:43.318Z,100.00
2022-12-25T10:15:32.445Z,100.00
2022-12-25T10:18:17.398Z,100.00
2022-12-25T10:20:52.284Z,100.00
2022-12-25T10:23:23.827Z,100.00
2022-12-25T10:25:53.561Z,100.00
2022-12-25T10:28:27.402Z,100.00
2022-12-25T10:30:57.131Z,100.00
2022-12-25T10:33:26.552Z,100.00
2022-12-25T10:35:54.393Z,100.00
2022-12-25T10:38:22.505Z,100.00
2022-12-25T10:41:18.898Z,100.00
2022-12-25T10:43:50.097Z,100.00
2022-12-25T10:46:19.505Z,100.00
2022-12-25T10:48:51.539Z,100.00
2022-12-25T10:51:29.767Z,100.00
2022-12-25T10:53:58.210Z,100.00
2022-12-25T10:56:26.263Z,100.00
2022-12-25T10:59:05.788Z,100.00
2022-12-25T11:01:34.138Z,100.00
2022-12-25T11:04:03.671Z,100.00
2022-12-25T11:06:34.453Z,100.00
2022-12-25T11:09:03.881Z,100.00
2022-12-25T11:11:32.246Z,100.00
2022-12-25T11:14:03.029Z,100.00
2022-12-25T11:16:33.012Z,100.00
2022-12-25T11:19:01.710Z,100.00
2022-12-25T11:21:32.983Z,100.00
2022-12-25T11:24:02.403Z,100.00
2022-12-25T11:26:32.949Z,100.00
2022-12-25T11:29:00.960Z,100.00
2022-12-25T11:31:37.868Z,100.00
2022-12-25T11:34:11.498Z,100.00
2022-12-25T11:36:45.746Z,100.00
2022-12-25T11:39:22.909Z,100.00
2022-12-25T11:41:54.056Z,100.00
2022-12-25T11:44:31.705Z,100.00
2022-12-25T11:47:08.438Z,100.00
2022-12-25T11:49:48.714Z,100.00
2022-12-25T11:52:20.886Z,100.00
2022-12-25T11:54:55.851Z,100.00
2022-12-25T11:57:27.444Z,100.00
2022-12-25T12:00:00.861Z,100.00
2022-12-25T12:02:36.170Z,100.00
2022-12-25T12:05:12.877Z,100.00
2022-12-25T12:07:53.198Z,100.00
2022-12-25T12:10:29.296Z,100.00
2022-12-25T12:13:07.279Z,100.00
2022-12-25T12:15:43.101Z,100.00
2022-12-25T12:18:20.213Z,100.00
2022-12-25T12:20:59.196Z,100.00
2022-12-25T12:23:29.689Z,100.00
2022-12-25T12:25:58.331Z,100.00
2022-12-25T12:28:28.719Z,100.00
2022-12-25T12:31:03.147Z,100.00
2022-12-25T12:33:37.499Z,100.00
2022-12-25T12:36:06.863Z,100.00
2022-12-25T12:38:37.071Z,100.00
2022-12-25T12:41:08.482Z,100.00
2022-12-25T12:43:38.882Z,100.00
2022-12-25T12:46:15.823Z,100.00
2022-12-25T12:48:45.542Z,100.00
2022-12-25T12:51:15.420Z,100.00
2022-12-25T12:53:44.713Z,100.00
2022-12-25T12:56:16.187Z,100.00
2022-12-25T12:58:49.828Z,100.00
2022-12-25T13:01:40.223Z,100.00
2022-12-25T13:04:33.629Z,100.00
2022-12-25T13:07:12.043Z,100.00
2022-12-25T13:09:55.296Z,100.00
2022-12-25T13:12:23.819Z,100.00
2022-12-25T13:14:51.858Z,100.00
2022-12-25T13:17:23.718Z,100.00
2022-12-25T13:19:56.197Z,100.00
2022-12-25T13:22:27.107Z,100.00
2022-12-25T13:25:00.994Z,100.00
2022-12-25T13:27:31.147Z,100.00
2022-12-25T13:29:59.548Z,100.00
2022-12-25T13:32:30.661Z,100.00
2022-12-25T13:34:59.740Z,100.00
2022-12-25T13:37:29.670Z,100.00
2022-12-25T13:40:00.834Z,100.00
2022-12-25T13:42:31.308Z,100.00
2022-12-25T13:45:01.740Z,100.00
2022-12-25T13:47:32.582Z,100.00
2022-12-25T13:50:02.700Z,100.00
2022-12-25T13:52:35.088Z,100.00
2022-12-25T13:55:11.803Z,100.00
2022-12-25T13:57:41.992Z,100.00
2022-12-25T14:00:19.438Z,100.00
2022-12-25T14:02:48.024Z,100.00
2022-12-25T14:05:27.652Z,100.00
2022-12-25T14:07:57.319Z,100.00
2022-12-25T14:10:29.366Z,100.00
2022-12-25T14:13:00.730Z,100.00
2022-12-25T14:15:31.054Z,100.00
2022-12-25T14:17:59.686Z,100.00
2022-12-25T14:20:31.659Z,100.00
2022-12-25T14:23:01.136Z,100.00
2022-12-25T14:25:34.390Z,100.00
2022-12-25T14:28:08.887Z,100.00
2022-12-25T14:30:37.397Z,100.00
2022-12-25T14:33:07.622Z,100.00
2022-12-25T14:35:35.537Z,100.00
2022-12-25T14:38:03.259Z,100.00
2022-12-25T14:40:35.913Z,100.00
2022-12-25T14:43:05.581Z,100.00
2022-12-25T14:45:34.985Z,100.00
2022-12-25T14:48:19.802Z,100.00
2022-12-25T14:50:56.559Z,100.00
2022-12-25T14:53:29.261Z,100.00
2022-12-25T14:55:58.455Z,100.00
2022-12-25T14:58:29.971Z,100.00
2022-12-25T15:01:00.243Z,100.00
2022-12-25T15:03:30.576Z,100.00
2022-12-25T15:06:01.218Z,100.00
2022-12-25T15:08:30.354Z,100.00
2022-12-25T15:11:02.304Z,100.00
2022-12-25T15:13:32.423Z,100.00
2022-12-25T15:16:04.849Z,100.00
2022-12-25T15:18:37.269Z,100.00
2022-12-25T15:21:05.150Z,100.00
2022-12-25T15:23:33.023Z,100.00
2022-12-25T15:26:02.140Z,100.00
2022-12-25T15:28:29.825Z,100.00
2022-12-25T15:30:57.689Z,100.00
2022-12-25T15:33:25.438Z,100.00
2022-12-25T15:35:53.203Z,100.00
2022-12-25T15:38:20.988Z,100.00
2022-12-25T15:40:48.764Z,100.00
2022-12-25T15:43:39.857Z,100.00
2022-12-25T15:46:06.678Z,100.00
2022-12-25T15:48:34.472Z,100.00
2022-12-25T15:51:02.251Z,100.00
2022-12-25T15:53:30.072Z,100.00
2022-12-25T15:55:58.059Z,100.00
2022-12-25T15:58:27.167Z,100.00
2022-12-25T16:00:55.080Z,100.00
2022-12-25T16:03:22.858Z,100.00
2022-12-25T16:05:51.178Z,100.00
2022-12-25T16:08:18.927Z,100.00
2022-12-25T16:10:46.792Z,100.00
2022-12-25T16:13:14.517Z,100.00
2022-12-25T16:15:44.892Z,100.00
2022-12-25T16:18:12.736Z,100.00
2022-12-25T16:20:41.112Z,100.00
2022-12-25T16:23:08.900Z,100.00
2022-12-25T16:25:36.612Z,100.00
2022-12-25T16:28:06.017Z,100.00
2022-12-25T16:30:33.906Z,100.00
2022-12-25T16:33:03.473Z,100.00
2022-12-25T16:35:31.629Z,100.00
2022-12-25T16:37:59.690Z,100.00
2022-12-25T16:40:27.685Z,100.00
2022-12-25T16:42:56.220Z,100.00
2022-12-25T16:45:24.193Z,100.00
2022-12-25T16:47:51.915Z,100.00
2022-12-25T16:50:22.330Z,100.00
2022-12-25T16:52:50.117Z,100.00
2022-12-25T16:55:18.050Z,100.00
2022-12-25T16:57:47.736Z,100.00
2022-12-25T17:00:16.358Z,100.00
2022-12-25T17:02:44.652Z,100.00
2022-12-25T17:05:12.536Z,100.00
2022-12-25T17:07:42.963Z,99.22
2022-12-25T17:10:12.675Z,99.47
2022-12-25T17:12:40.527Z,98.72
2022-12-25T17:15:09.302Z,98.76
2022-12-25T17:17:37.081Z,99.19
2022-12-25T17:20:05.799Z,99.45
2022-12-25T17:22:33.633Z,100.00
2022-12-25T17:25:02.741Z,100.00
2022-12-25T17:27:30.706Z,99.98
2022-12-25T17:29:58.423Z,99.85
2022-12-25T17:32:26.200Z,98.92
2022-12-25T17:34:53.962Z,98.66
2022-12-25T17:37:21.687Z,98.83
2022-12-25T17:39:49.449Z,99.33
2022-12-25T17:42:18.533Z,100.00
2022-12-25T17:44:47.195Z,99.58
2022-12-25T17:47:14.933Z,98.72
2022-12-25T17:49:42.794Z,98.27
2022-12-25T17:52:10.583Z,98.78
2022-12-25T17:54:39.124Z,96.60
2022-12-25T17:57:07.020Z,96.82
2022-12-25T17:59:36.137Z,97.93
2022-12-25T18:02:04.036Z,98.04
2022-12-25T18:04:31.852Z,98.86
2022-12-25T18:06:59.559Z,98.84
2022-12-25T18:09:27.747Z,98.82
2022-12-25T18:11:56.090Z,99.07
2022-12-25T18:14:23.823Z,99.86
2022-12-25T18:16:53.512Z,100.00
2022-12-25T18:19:21.392Z,96.70
2022-12-25T18:21:49.328Z,96.96
2022-12-25T18:24:17.128Z,96.36
2022-12-25T18:26:45.659Z,95.04
2022-12-25T18:29:13.412Z,92.22
2022-12-25T18:31:43.410Z,91.18
2022-12-25T18:34:12.533Z,90.45
2022-12-25T18:36:40.531Z,90.95
2022-12-25T18:39:08.290Z,89.41
2022-12-25T18:41:56.044Z,90.69
2022-12-25T18:44:23.822Z,90.51
2022-12-25T18:46:51.634Z,90.20
2022-12-25T18:49:20.727Z,90.47
2022-12-25T18:51:50.484Z,90.25
2022-12-25T18:54:19.219Z,89.15
2022-12-25T18:56:52.121Z,89.81
2022-12-25T18:59:22.223Z,90.57
2022-12-25T19:01:50.161Z,91.21
2022-12-25T19:04:18.370Z,90.49
2022-12-25T19:06:49.547Z,90.33
2022-12-25T19:09:17.337Z,90.54
2022-12-25T19:11:46.761Z,90.64
2022-12-25T19:14:15.780Z,89.73
2022-12-25T19:16:43.715Z,90.32
2022-12-25T19:19:11.483Z,90.02
2022-12-25T19:21:39.264Z,90.07
2022-12-25T19:24:08.702Z,90.05
2022-12-25T19:26:37.562Z,90.45
2022-12-25T19:29:05.872Z,90.86
2022-12-25T19:31:33.606Z,90.80
2022-12-25T19:34:01.401Z,92.22
2022-12-25T19:36:29.143Z,92.62
2022-12-25T19:38:56.996Z,91.70
2022-12-25T19:41:26.336Z,92.60
2022-12-25T19:43:54.071Z,92.40
2022-12-25T19:46:25.461Z,93.18
2022-12-25T19:48:53.754Z,93.46
2022-12-25T19:51:24.328Z,94.20
2022-12-25T19:53:52.784Z,94.26
2022-12-25T19:56:20.864Z,95.42
2022-12-25T19:58:50.042Z,95.65
2022-12-25T20:01:20.831Z,96.12
2022-12-25T20:03:49.792Z,95.71
2022-12-25T20:06:24.775Z,95.98
2022-12-25T20:08:53.838Z,95.76
2022-12-25T20:11:22.328Z,96.22
2022-12-25T20:13:51.654Z,96.59
2022-12-25T20:16:19.496Z,96.62
2022-12-25T20:18:47.251Z,96.65
2022-12-25T20:21:17.739Z,96.99
2022-12-25T20:23:47.132Z,97.32
2022-12-25T20:26:17.599Z,97.72
2022-12-25T20:28:46.208Z,97.59
2022-12-25T20:31:17.685Z,97.66
2022-12-25T20:33:46.301Z,97.80
2022-12-25T20:36:14.241Z,98.00
2022-12-25T20:38:42.393Z,98.40
2022-12-25T20:41:29.346Z,98.39
2022-12-25T20:43:58.235Z,99.19
2022-12-25T20:46:28.118Z,99.28
2022-12-25T20:48:55.947Z,99.28
2022-12-25T20:51:26.058Z,99.63
2022-12-25T20:53:54.119Z,99.57
2022-12-25T20:56:23.691Z,99.38
2022-12-25T20:58:55.081Z,100.00
2022-12-25T21:01:23.075Z,100.00
2022-12-25T21:03:52.732Z,100.00
2022-12-25T21:06:20.638Z,100.00
2022-12-25T21:08:48.904Z,100.00
2022-12-25T21:11:17.928Z,100.00
2022-12-25T21:13:46.996Z,100.00
2022-12-25T21:16:18.354Z,100.00
2022-12-25T21:18:46.781Z,100.00
2022-12-25T21:21:16.826Z,100.00
2022-12-25T21:23:45.508Z,100.00
2022-12-25T21:26:16.705Z,100.00
2022-12-25T21:28:44.429Z,100.00
2022-12-25T21:31:12.684Z,100.00
2022-12-25T21:33:51.765Z,100.00
2022-12-25T21:36:24.067Z,100.00
2022-12-25T21:38:58.247Z,100.00
2022-12-25T21:41:27.143Z,100.00
2022-12-25T21:43:55.225Z,100.00
2022-12-25T21:46:23.148Z,100.00
2022-12-25T21:48:51.649Z,100.00
2022-12-25T21:51:40.893Z,99.61
2022-12-25T21:54:09.018Z,99.49
2022-12-25T21:56:43.452Z,99.61
2022-12-25T21:59:14.377Z,99.62
2022-12-25T22:01:42.312Z,99.26
2022-12-25T22:04:12.319Z,98.73
2022-12-25T22:06:59.284Z,98.42
2022-12-25T22:09:27.603Z,98.38
2022-12-25T22:12:13.015Z,98.19
2022-12-25T22:14:54.681Z,97.90
2022-12-25T22:17:42.008Z,97.40
2022-12-25T22:20:11.947Z,96.01
2022-12-25T22:22:41.163Z,95.82
2022-12-25T22:25:10.685Z,95.78
2022-12-25T22:27:39.618Z,96.02
2022-12-25T22:30:10.234Z,95.63
2022-12-25T22:32:38.153Z,94.95
2022-12-25T22:35:07.199Z,94.60
2022-12-25T22:37:35.900Z,94.02
2022-12-25T22:40:06.511Z,94.28
2022-12-25T22:42:35.032Z,94.68
2022-12-25T22:45:03.327Z,93.91
2022-12-25T22:47:31.238Z,93.67
2022-12-25T22:49:59.032Z,92.96
2022-12-25T22:52:27.347Z,93.30
2022-12-25T22:54:55.090Z,93.24
2022-12-25T22:57:24.177Z,93.04
2022-12-25T22:59:53.053Z,92.36
2022-12-25T23:02:21.399Z,91.86
2022-12-25T23:04:49.427Z,91.96
2022-12-25T23:07:17.569Z,91.47
2022-12-25T23:09:46.060Z,91.36
2022-12-25T23:12:27.737Z,90.71
2022-12-25T23:14:56.914Z,90.82
2022-12-25T23:17:42.349Z,90.55
2022-12-25T23:20:29.202Z,90.89
2022-12-25T23:23:14.594Z,91.31
2022-12-25T23:26:00.070Z,90.96
2022-12-25T23:28:46.089Z,91.34
2022-12-25T23:31:15.332Z,90.73
2022-12-25T23:33:43.123Z,91.05
2022-12-25T23:36:10.939Z,91.09
2022-12-25T23:38:38.749Z,90.73
2022-12-25T23:41:06.701Z,91.33
2022-12-25T23:43:34.530Z,91.73
2022-12-25T23:46:02.374Z,92.45
2022-12-25T23:48:31.522Z,92.66
2022-12-25T23:51:03.325Z,93.11
2022-12-25T23:53:31.075Z,92.73
2022-12-25T23:55:59.583Z,93.46
2022-12-25T23:58:29.009Z,93.46
